Terminal Aerodrome Forecast
Issued by NWS St Louis, MO

Home | Current Version | Previous Version | Text Only | Print | Product List | Glossary On
Versions: 1 2 3 4 5 6 7 8 9 10 11 12 13 14 15 16
000
FTUS43 KLSX 200500
TAFCOU
TAF
KCOU 200520Z 2006/2106 07012KT P6SM VCSH OVC090
     FM201000 06012KT 4SM -RA BR OVC030
     FM201300 06010KT 3SM -RA BR OVC006
     FM201600 05009KT 2SM -DZ BR OVC006
     FM210100 01006KT 4SM BR OVC015=

USA.gov is the U.S. government's official web portal to all federal, state and local government web resources and services.